EPKT/KTW METAR and TAF weather

Enter ICAO airport designator
Station Type Date Time Source
EPKT METAR 2019/12/14 06:00 UTC NOAA

EPKT 140600Z 17009KT 9999 SCT043 04/M00 Q0993


Station Type Date Time Source
EPKT Decoded METAR 2019/12/14 06:00 UTC NOAA

Katowice, Poland (EPKT) 50-14N 019-02E 284M
Dec 14, 2019 - 01:00 AM EST / 2019.12.14 0600 UTC
Wind: from the S (170 degrees) at 10 MPH (9 KT):0
Visibility: greater than 7 mile(s):0
Sky conditions: partly cloudy
Temperature: 39 F (4 C)
Dew Point: 32 F (0 C)
Relative Humidity: 75%
Pressure (altimeter): 29.32 in. Hg (0993 hPa)
ob: EPKT 140600Z 17009KT 9999 SCT043 04/M00 Q0993
cycle: 6

Station Type Date Time Source
EPKT TAF 2019/12/14 06:33 UTC NOAA

TAF EPKT 140530Z 1406/1506 16010KT 9999 SCT030
BECMG 1413/1415 24014KT
TEMPO 1415/1503 4000 SHRA BKN013CB PROB40
TEMPO 1415/1421 25016G30KT

Example: see airport list